sensor_id;sensor_type;location;lat;lon;timestamp;P1;durP1;ratioP1;P2;durP2;ratioP2
22015;SDS011;64992;51.698;-0.292;2022-11-11T00:00:05;6.65;;;1.60;;
22015;SDS011;64992;51.698;-0.292;2022-11-11T00:02:31;4.25;;;1.45;;
22015;SDS011;64992;51.698;-0.292;2022-11-11T00:04:57;5.55;;;1.60;;
22015;SDS011;64992;51.698;-0.292;2022-11-11T00:07:23;15.07;;;1.95;;
22015;SDS011;64992;51.698;-0.292;2022-11-11T00:09:49;5.38;;;1.42;;
22015;SDS011;64992;51.698;-0.292;2022-11-11T00:12:15;5.40;;;1.77;;
22015;SDS011;64992;51.698;-0.292;2022-11-11T00:14:41;7.38;;;1.58;;
22015;SDS011;64992;51.698;-0.292;2022-11-11T00:17:09;4.93;;;1.80;;
22015;SDS011;64992;51.698;-0.292;2022-11-11T00:19:55;5.38;;;1.40;;
22015;SDS011;64992;51.698;-0.292;2022-11-11T00:22:39;4.60;;;1.75;;
22015;SDS011;64992;51.698;-0.292;2022-11-11T00:25:24;3.88;;;1.75;;
22015;SDS011;64992;51.698;-0.292;2022-11-11T00:27:50;6.22;;;1.50;;
22015;SDS011;64992;51.698;-0.292;2022-11-11T00:30:16;5.60;;;1.95;;
22015;SDS011;64992;51.698;-0.292;2022-11-11T00:32:42;9.27;;;1.95;;
22015;SDS011;64992;51.698;-0.292;2022-11-11T00:35:08;5.90;;;1.65;;
22015;SDS011;64992;51.698;-0.292;2022-11-11T00:37:53;6.50;;;1.90;;
22015;SDS011;64992;51.698;-0.292;2022-11-11T00:40:19;5.70;;;1.70;;
22015;SDS011;64992;51.698;-0.292;2022-11-11T00:42:45;2.22;;;1.35;;
22015;SDS011;64992;51.698;-0.292;2022-11-11T00:45:11;6.57;;;1.42;;
22015;SDS011;64992;51.698;-0.292;2022-11-11T00:47:37;8.07;;;1.58;;
22015;SDS011;64992;51.698;-0.292;2022-11-11T00:50:24;3.63;;;1.27;;
22015;SDS011;64992;51.698;-0.292;2022-11-11T00:53:19;6.25;;;1.70;;
22015;SDS011;64992;51.698;-0.292;2022-11-11T00:55:45;2.95;;;1.58;;
22015;SDS011;64992;51.698;-0.292;2022-11-11T00:58:11;9.25;;;1.80;;
22015;SDS011;64992;51.698;-0.292;2022-11-11T01:00:37;12.90;;;1.95;;
22015;SDS011;64992;51.698;-0.292;2022-11-11T01:03:03;6.35;;;2.28;;
22015;SDS011;64992;51.698;-0.292;2022-11-11T01:05:29;6.75;;;1.70;;
22015;SDS011;64992;51.698;-0.292;2022-11-11T01:07:55;4.47;;;1.25;;
22015;SDS011;64992;51.698;-0.292;2022-11-11T01:10:21;5.13;;;1.48;;
22015;SDS011;64992;51.698;-0.292;2022-11-11T01:13:06;6.63;;;1.75;;
22015;SDS011;64992;51.698;-0.292;2022-11-11T01:15:42;4.75;;;1.38;;
22015;SDS011;64992;51.698;-0.292;2022-11-11T01:18:09;2.42;;;1.52;;
22015;SDS011;64992;51.698;-0.292;2022-11-11T01:20:35;3.95;;;1.67;;
22015;SDS011;64992;51.698;-0.292;2022-11-11T01:23:03;6.03;;;1.40;;
22015;SDS011;64992;51.698;-0.292;2022-11-11T01:25:31;8.02;;;1.75;;
22015;SDS011;64992;51.698;-0.292;2022-11-11T01:27:57;2.22;;;1.30;;
22015;SDS011;64992;51.698;-0.292;2022-11-11T01:30:23;6.80;;;1.73;;
22015;SDS011;64992;51.698;-0.292;2022-11-11T01:32:49;3.25;;;1.23;;
22015;SDS011;64992;51.698;-0.292;2022-11-11T01:35:15;4.60;;;1.23;;
22015;SDS011;64992;51.698;-0.292;2022-11-11T01:37:41;6.50;;;1.80;;
22015;SDS011;64992;51.698;-0.292;2022-11-11T01:40:07;3.95;;;1.40;;
22015;SDS011;64992;51.698;-0.292;2022-11-11T01:47:57;4.13;;;1.88;;
22015;SDS011;64992;51.698;-0.292;2022-11-11T01:50:41;6.00;;;1.73;;
22015;SDS011;64992;51.698;-0.292;2022-11-11T01:53:07;6.95;;;1.60;;
22015;SDS011;64992;51.698;-0.292;2022-11-11T01:55:33;5.22;;;1.42;;
22015;SDS011;64992;51.698;-0.292;2022-11-11T02:00:28;6.30;;;1.50;;
22015;SDS011;64992;51.698;-0.292;2022-11-11T02:02:58;11.50;;;1.73;;
22015;SDS011;64992;51.698;-0.292;2022-11-11T02:05:25;6.90;;;1.83;;
22015;SDS011;64992;51.698;-0.292;2022-11-11T02:08:10;5.15;;;1.90;;
22015;SDS011;64992;51.698;-0.292;2022-11-11T02:10:37;7.78;;;1.77;;
22015;SDS011;64992;51.698;-0.292;2022-11-11T02:13:05;6.25;;;1.55;;
22015;SDS011;64992;51.698;-0.292;2022-11-11T02:15:49;10.93;;;2.05;;
22015;SDS011;64992;51.698;-0.292;2022-11-11T02:18:15;7.18;;;2.00;;
22015;SDS011;64992;51.698;-0.292;2022-11-11T02:20:42;2.00;;;1.27;;
22015;SDS011;64992;51.698;-0.292;2022-11-11T02:23:14;8.57;;;1.80;;
22015;SDS011;64992;51.698;-0.292;2022-11-11T02:25:42;6.72;;;1.63;;
22015;SDS011;64992;51.698;-0.292;2022-11-11T02:28:09;5.38;;;1.60;;
22015;SDS011;64992;51.698;-0.292;2022-11-11T02:30:35;8.10;;;1.80;;
22015;SDS011;64992;51.698;-0.292;2022-11-11T02:33:01;6.43;;;1.52;;
22015;SDS011;64992;51.698;-0.292;2022-11-11T02:35:31;5.30;;;1.65;;
22015;SDS011;64992;51.698;-0.292;2022-11-11T02:37:58;6.97;;;1.92;;
22015;SDS011;64992;51.698;-0.292;2022-11-11T02:40:30;6.13;;;1.55;;
22015;SDS011;64992;51.698;-0.292;2022-11-11T02:42:58;4.97;;;1.60;;
22015;SDS011;64992;51.698;-0.292;2022-11-11T02:45:24;4.30;;;1.70;;
22015;SDS011;64992;51.698;-0.292;2022-11-11T02:47:50;8.32;;;2.13;;
22015;SDS011;64992;51.698;-0.292;2022-11-11T02:50:16;6.68;;;1.92;;
22015;SDS011;64992;51.698;-0.292;2022-11-11T02:52:42;7.13;;;2.10;;
22015;SDS011;64992;51.698;-0.292;2022-11-11T02:55:08;5.57;;;1.52;;
22015;SDS011;64992;51.698;-0.292;2022-11-11T02:57:34;9.25;;;2.30;;
22015;SDS011;64992;51.698;-0.292;2022-11-11T03:00:00;4.85;;;1.95;;
22015;SDS011;64992;51.698;-0.292;2022-11-11T03:02:27;5.28;;;1.92;;
22015;SDS011;64992;51.698;-0.292;2022-11-11T03:04:54;6.47;;;1.80;;
22015;SDS011;64992;51.698;-0.292;2022-11-11T03:07:20;6.03;;;2.08;;
22015;SDS011;64992;51.698;-0.292;2022-11-11T03:09:46;4.97;;;1.92;;
22015;SDS011;64992;51.698;-0.292;2022-11-11T03:12:12;10.40;;;2.25;;
22015;SDS011;64992;51.698;-0.292;2022-11-11T03:14:38;4.95;;;1.70;;
22015;SDS011;64992;51.698;-0.292;2022-11-11T03:17:04;5.60;;;1.85;;
22015;SDS011;64992;51.698;-0.292;2022-11-11T03:19:49;4.20;;;1.88;;
22015;SDS011;64992;51.698;-0.292;2022-11-11T03:22:15;7.07;;;2.30;;
22015;SDS011;64992;51.698;-0.292;2022-11-11T03:24:41;8.50;;;2.55;;
22015;SDS011;64992;51.698;-0.292;2022-11-11T03:27:25;9.57;;;1.92;;
22015;SDS011;64992;51.698;-0.292;2022-11-11T03:29:51;9.07;;;2.60;;
22015;SDS011;64992;51.698;-0.292;2022-11-11T03:32:17;5.50;;;1.98;;
22015;SDS011;64992;51.698;-0.292;2022-11-11T03:34:43;6.97;;;2.33;;
22015;SDS011;64992;51.698;-0.292;2022-11-11T03:37:09;9.18;;;1.95;;
22015;SDS011;64992;51.698;-0.292;2022-11-11T03:39:54;7.88;;;2.13;;
22015;SDS011;64992;51.698;-0.292;2022-11-11T03:42:20;11.10;;;2.28;;
22015;SDS011;64992;51.698;-0.292;2022-11-11T03:44:46;10.48;;;2.17;;
22015;SDS011;64992;51.698;-0.292;2022-11-11T03:47:12;10.20;;;2.55;;
22015;SDS011;64992;51.698;-0.292;2022-11-11T03:49:40;7.55;;;2.20;;
22015;SDS011;64992;51.698;-0.292;2022-11-11T03:52:06;7.68;;;2.38;;
22015;SDS011;64992;51.698;-0.292;2022-11-11T03:54:32;10.13;;;2.13;;
22015;SDS011;64992;51.698;-0.292;2022-11-11T03:56:58;13.13;;;3.55;;
22015;SDS011;64992;51.698;-0.292;2022-11-11T03:59:43;11.73;;;2.65;;
22015;SDS011;64992;51.698;-0.292;2022-11-11T04:02:11;14.60;;;2.10;;
22015;SDS011;64992;51.698;-0.292;2022-11-11T04:04:55;8.32;;;2.17;;
22015;SDS011;64992;51.698;-0.292;2022-11-11T04:07:40;8.02;;;1.83;;
22015;SDS011;64992;51.698;-0.292;2022-11-11T04:10:27;16.42;;;3.00;;
22015;SDS011;64992;51.698;-0.292;2022-11-11T04:12:53;9.75;;;2.42;;
22015;SDS011;64992;51.698;-0.292;2022-11-11T04:15:38;14.35;;;2.60;;
22015;SDS011;64992;51.698;-0.292;2022-11-11T04:18:23;16.73;;;2.65;;
22015;SDS011;64992;51.698;-0.292;2022-11-11T04:21:09;6.38;;;2.03;;
22015;SDS011;64992;51.698;-0.292;2022-11-11T04:23:53;16.52;;;2.67;;
22015;SDS011;64992;51.698;-0.292;2022-11-11T04:26:19;15.98;;;3.08;;
22015;SDS011;64992;51.698;-0.292;2022-11-11T04:28:45;13.18;;;3.70;;
22015;SDS011;64992;51.698;-0.292;2022-11-11T04:31:30;9.88;;;2.10;;
22015;SDS011;64992;51.698;-0.292;2022-11-11T04:33:56;11.02;;;3.28;;
22015;SDS011;64992;51.698;-0.292;2022-11-11T04:36:22;13.40;;;2.25;;
22015;SDS011;64992;51.698;-0.292;2022-11-11T04:38:48;12.73;;;3.63;;
22015;SDS011;64992;51.698;-0.292;2022-11-11T04:41:33;8.30;;;2.63;;
22015;SDS011;64992;51.698;-0.292;2022-11-11T04:43:59;13.57;;;2.72;;
22015;SDS011;64992;51.698;-0.292;2022-11-11T04:46:43;7.47;;;2.30;;
22015;SDS011;64992;51.698;-0.292;2022-11-11T04:49:09;14.77;;;2.25;;
22015;SDS011;64992;51.698;-0.292;2022-11-11T04:51:35;10.63;;;2.17;;
22015;SDS011;64992;51.698;-0.292;2022-11-11T04:54:20;10.88;;;2.33;;
22015;SDS011;64992;51.698;-0.292;2022-11-11T04:56:46;13.88;;;2.40;;
22015;SDS011;64992;51.698;-0.292;2022-11-11T04:59:12;12.38;;;3.55;;
22015;SDS011;64992;51.698;-0.292;2022-11-11T05:01:41;10.07;;;2.03;;
22015;SDS011;64992;51.698;-0.292;2022-11-11T05:04:25;10.05;;;2.55;;
22015;SDS011;64992;51.698;-0.292;2022-11-11T05:06:51;7.65;;;2.30;;
22015;SDS011;64992;51.698;-0.292;2022-11-11T05:09:36;10.88;;;2.83;;
22015;SDS011;64992;51.698;-0.292;2022-11-11T05:12:02;9.75;;;2.20;;
22015;SDS011;64992;51.698;-0.292;2022-11-11T05:14:28;10.57;;;3.15;;
22015;SDS011;64992;51.698;-0.292;2022-11-11T05:17:13;12.05;;;2.17;;
22015;SDS011;64992;51.698;-0.292;2022-11-11T05:19:57;9.93;;;2.65;;
22015;SDS011;64992;51.698;-0.292;2022-11-11T05:22:42;12.40;;;2.65;;
22015;SDS011;64992;51.698;-0.292;2022-11-11T05:25:09;10.55;;;2.47;;
22015;SDS011;64992;51.698;-0.292;2022-11-11T05:27:53;12.25;;;2.97;;
22015;SDS011;64992;51.698;-0.292;2022-11-11T05:30:19;10.55;;;2.35;;
22015;SDS011;64992;51.698;-0.292;2022-11-11T05:32:46;7.10;;;2.58;;
22015;SDS011;64992;51.698;-0.292;2022-11-11T05:35:12;10.55;;;2.38;;
22015;SDS011;64992;51.698;-0.292;2022-11-11T05:37:39;15.27;;;2.85;;
22015;SDS011;64992;51.698;-0.292;2022-11-11T05:40:05;8.13;;;2.28;;
22015;SDS011;64992;51.698;-0.292;2022-11-11T05:42:31;11.02;;;2.90;;
22015;SDS011;64992;51.698;-0.292;2022-11-11T05:44:57;5.82;;;2.55;;
22015;SDS011;64992;51.698;-0.292;2022-11-11T05:47:23;8.13;;;2.08;;
22015;SDS011;64992;51.698;-0.292;2022-11-11T05:49:50;11.82;;;5.10;;
22015;SDS011;64992;51.698;-0.292;2022-11-11T05:52:16;9.50;;;3.70;;
22015;SDS011;64992;51.698;-0.292;2022-11-11T05:54:42;12.27;;;2.85;;
22015;SDS011;64992;51.698;-0.292;2022-11-11T05:57:10;10.98;;;2.95;;
22015;SDS011;64992;51.698;-0.292;2022-11-11T05:59:36;12.07;;;2.60;;
22015;SDS011;64992;51.698;-0.292;2022-11-11T06:02:02;11.07;;;3.15;;
22015;SDS011;64992;51.698;-0.292;2022-11-11T06:04:28;5.57;;;2.30;;
22015;SDS011;64992;51.698;-0.292;2022-11-11T06:06:54;7.93;;;2.50;;
22015;SDS011;64992;51.698;-0.292;2022-11-11T06:09:20;11.35;;;2.60;;
22015;SDS011;64992;51.698;-0.292;2022-11-11T06:11:46;12.75;;;2.58;;
22015;SDS011;64992;51.698;-0.292;2022-11-11T06:14:12;14.25;;;3.15;;
22015;SDS011;64992;51.698;-0.292;2022-11-11T06:16:38;8.20;;;2.55;;
22015;SDS011;64992;51.698;-0.292;2022-11-11T06:19:04;12.25;;;2.70;;
22015;SDS011;64992;51.698;-0.292;2022-11-11T06:21:30;14.57;;;2.67;;
22015;SDS011;64992;51.698;-0.292;2022-11-11T06:24:16;13.65;;;2.38;;
22015;SDS011;64992;51.698;-0.292;2022-11-11T06:26:42;11.60;;;3.10;;
22015;SDS011;64992;51.698;-0.292;2022-11-11T06:29:09;12.57;;;3.03;;
22015;SDS011;64992;51.698;-0.292;2022-11-11T06:31:35;14.48;;;2.50;;
22015;SDS011;64992;51.698;-0.292;2022-11-11T06:34:01;13.18;;;2.75;;
22015;SDS011;64992;51.698;-0.292;2022-11-11T06:36:26;8.38;;;2.45;;
22015;SDS011;64992;51.698;-0.292;2022-11-11T06:38:52;14.52;;;3.20;;
22015;SDS011;64992;51.698;-0.292;2022-11-11T06:41:18;9.30;;;2.40;;
22015;SDS011;64992;51.698;-0.292;2022-11-11T06:43:48;13.68;;;2.28;;
22015;SDS011;64992;51.698;-0.292;2022-11-11T06:46:19;13.20;;;2.58;;
22015;SDS011;64992;51.698;-0.292;2022-11-11T06:48:46;10.33;;;2.47;;
22015;SDS011;64992;51.698;-0.292;2022-11-11T06:51:12;12.48;;;2.47;;
22015;SDS011;64992;51.698;-0.292;2022-11-11T06:53:39;11.82;;;2.83;;
22015;SDS011;64992;51.698;-0.292;2022-11-11T06:56:05;12.02;;;3.10;;
22015;SDS011;64992;51.698;-0.292;2022-11-11T06:58:32;13.77;;;3.53;;
22015;SDS011;64992;51.698;-0.292;2022-11-11T07:00:58;12.43;;;3.15;;
22015;SDS011;64992;51.698;-0.292;2022-11-11T07:03:24;11.15;;;3.40;;
22015;SDS011;64992;51.698;-0.292;2022-11-11T07:05:50;10.55;;;2.80;;
22015;SDS011;64992;51.698;-0.292;2022-11-11T07:08:19;14.93;;;2.70;;
22015;SDS011;64992;51.698;-0.292;2022-11-11T07:10:46;11.73;;;2.70;;
22015;SDS011;64992;51.698;-0.292;2022-11-11T07:13:12;16.23;;;3.17;;
22015;SDS011;64992;51.698;-0.292;2022-11-11T07:15:39;11.95;;;2.90;;
22015;SDS011;64992;51.698;-0.292;2022-11-11T07:18:05;13.48;;;3.10;;
22015;SDS011;64992;51.698;-0.292;2022-11-11T07:20:31;11.05;;;3.40;;
22015;SDS011;64992;51.698;-0.292;2022-11-11T07:22:59;9.65;;;2.78;;
22015;SDS011;64992;51.698;-0.292;2022-11-11T07:25:25;9.73;;;2.22;;
22015;SDS011;64992;51.698;-0.292;2022-11-11T07:27:51;9.15;;;2.60;;
22015;SDS011;64992;51.698;-0.292;2022-11-11T07:30:17;13.55;;;3.15;;
22015;SDS011;64992;51.698;-0.292;2022-11-11T07:32:44;9.65;;;2.83;;
22015;SDS011;64992;51.698;-0.292;2022-11-11T07:35:11;13.75;;;2.85;;
22015;SDS011;64992;51.698;-0.292;2022-11-11T07:37:38;9.65;;;2.97;;
22015;SDS011;64992;51.698;-0.292;2022-11-11T07:40:04;7.80;;;2.38;;
22015;SDS011;64992;51.698;-0.292;2022-11-11T07:42:30;12.07;;;2.83;;
22015;SDS011;64992;51.698;-0.292;2022-11-11T07:44:56;14.35;;;2.75;;
22015;SDS011;64992;51.698;-0.292;2022-11-11T07:47:22;10.82;;;3.08;;
22015;SDS011;64992;51.698;-0.292;2022-11-11T07:49:48;9.93;;;3.22;;
22015;SDS011;64992;51.698;-0.292;2022-11-11T07:52:14;8.45;;;2.72;;
22015;SDS011;64992;51.698;-0.292;2022-11-11T07:54:40;9.50;;;2.72;;
22015;SDS011;64992;51.698;-0.292;2022-11-11T07:57:06;12.45;;;2.83;;
22015;SDS011;64992;51.698;-0.292;2022-11-11T07:59:32;8.52;;;2.65;;
22015;SDS011;64992;51.698;-0.292;2022-11-11T08:01:58;14.73;;;3.50;;
22015;SDS011;64992;51.698;-0.292;2022-11-11T08:04:24;11.80;;;2.85;;
22015;SDS011;64992;51.698;-0.292;2022-11-11T08:06:50;13.60;;;2.88;;
22015;SDS011;64992;51.698;-0.292;2022-11-11T08:09:16;14.73;;;2.83;;
22015;SDS011;64992;51.698;-0.292;2022-11-11T08:11:42;10.52;;;2.85;;
22015;SDS011;64992;51.698;-0.292;2022-11-11T08:14:27;10.05;;;2.63;;
22015;SDS011;64992;51.698;-0.292;2022-11-11T08:16:53;9.63;;;2.83;;
22015;SDS011;64992;51.698;-0.292;2022-11-11T08:19:18;8.38;;;3.33;;
22015;SDS011;64992;51.698;-0.292;2022-11-11T08:21:45;9.52;;;2.15;;
22015;SDS011;64992;51.698;-0.292;2022-11-11T08:24:11;11.88;;;2.83;;
22015;SDS011;64992;51.698;-0.292;2022-11-11T08:26:37;15.70;;;3.00;;
22015;SDS011;64992;51.698;-0.292;2022-11-11T08:29:02;10.35;;;3.08;;
22015;SDS011;64992;51.698;-0.292;2022-11-11T08:31:28;11.60;;;2.90;;
22015;SDS011;64992;51.698;-0.292;2022-11-11T08:33:56;9.27;;;3.33;;
22015;SDS011;64992;51.698;-0.292;2022-11-11T08:36:22;10.02;;;2.60;;
22015;SDS011;64992;51.698;-0.292;2022-11-11T08:38:49;9.85;;;2.88;;
22015;SDS011;64992;51.698;-0.292;2022-11-11T08:41:15;12.18;;;3.58;;
22015;SDS011;64992;51.698;-0.292;2022-11-11T08:43:41;10.60;;;2.40;;
22015;SDS011;64992;51.698;-0.292;2022-11-11T08:46:07;14.20;;;3.00;;
22015;SDS011;64992;51.698;-0.292;2022-11-11T08:48:35;10.20;;;2.95;;
22015;SDS011;64992;51.698;-0.292;2022-11-11T08:51:01;8.70;;;3.33;;
22015;SDS011;64992;51.698;-0.292;2022-11-11T08:53:27;11.73;;;3.17;;
22015;SDS011;64992;51.698;-0.292;2022-11-11T08:55:53;13.43;;;3.38;;
22015;SDS011;64992;51.698;-0.292;2022-11-11T08:58:19;12.10;;;3.30;;
22015;SDS011;64992;51.698;-0.292;2022-11-11T09:00:45;8.98;;;3.08;;
22015;SDS011;64992;51.698;-0.292;2022-11-11T09:03:11;13.05;;;2.35;;
22015;SDS011;64992;51.698;-0.292;2022-11-11T09:05:37;10.27;;;3.22;;
22015;SDS011;64992;51.698;-0.292;2022-11-11T09:08:04;8.70;;;2.92;;
22015;SDS011;64992;51.698;-0.292;2022-11-11T09:10:34;11.45;;;3.08;;
22015;SDS011;64992;51.698;-0.292;2022-11-11T09:13:00;11.55;;;2.95;;
22015;SDS011;64992;51.698;-0.292;2022-11-11T09:15:27;10.50;;;2.47;;
22015;SDS011;64992;51.698;-0.292;2022-11-11T09:17:53;13.25;;;3.00;;
22015;SDS011;64992;51.698;-0.292;2022-11-11T09:20:20;10.95;;;3.05;;
22015;SDS011;64992;51.698;-0.292;2022-11-11T09:22:46;10.90;;;3.03;;
22015;SDS011;64992;51.698;-0.292;2022-11-11T09:25:13;12.38;;;3.08;;
22015;SDS011;64992;51.698;-0.292;2022-11-11T09:27:39;10.80;;;3.03;;
22015;SDS011;64992;51.698;-0.292;2022-11-11T09:30:05;11.55;;;3.22;;
22015;SDS011;64992;51.698;-0.292;2022-11-11T09:32:32;14.13;;;2.80;;
22015;SDS011;64992;51.698;-0.292;2022-11-11T09:34:58;12.27;;;2.95;;
22015;SDS011;64992;51.698;-0.292;2022-11-11T09:37:24;12.25;;;3.08;;
22015;SDS011;64992;51.698;-0.292;2022-11-11T09:39:50;9.70;;;2.78;;
22015;SDS011;64992;51.698;-0.292;2022-11-11T09:42:17;7.80;;;2.72;;
22015;SDS011;64992;51.698;-0.292;2022-11-11T09:44:57;13.07;;;4.10;;
22015;SDS011;64992;51.698;-0.292;2022-11-11T09:50:12;9.18;;;2.90;;
22015;SDS011;64992;51.698;-0.292;2022-11-11T09:55:20;9.25;;;3.03;;
22015;SDS011;64992;51.698;-0.292;2022-11-11T09:57:48;12.35;;;3.15;;
22015;SDS011;64992;51.698;-0.292;2022-11-11T10:00:20;10.57;;;2.67;;
22015;SDS011;64992;51.698;-0.292;2022-11-11T10:02:54;10.73;;;3.05;;
22015;SDS011;64992;51.698;-0.292;2022-11-11T10:05:24;12.23;;;3.10;;
22015;SDS011;64992;51.698;-0.292;2022-11-11T10:10:21;13.18;;;3.00;;
22015;SDS011;64992;51.698;-0.292;2022-11-11T10:12:49;10.45;;;3.80;;
22015;SDS011;64992;51.698;-0.292;2022-11-11T10:15:17;10.73;;;3.20;;
22015;SDS011;64992;51.698;-0.292;2022-11-11T10:17:49;7.03;;;3.58;;
22015;SDS011;64992;51.698;-0.292;2022-11-11T10:20:27;13.95;;;3.28;;
22015;SDS011;64992;51.698;-0.292;2022-11-11T10:23:16;8.90;;;3.25;;
22015;SDS011;64992;51.698;-0.292;2022-11-11T10:25:44;8.07;;;2.53;;
22015;SDS011;64992;51.698;-0.292;2022-11-11T10:28:13;10.77;;;3.42;;
22015;SDS011;64992;51.698;-0.292;2022-11-11T10:30:40;15.00;;;3.55;;
22015;SDS011;64992;51.698;-0.292;2022-11-11T10:33:16;14.27;;;3.50;;
22015;SDS011;64992;51.698;-0.292;2022-11-11T10:35:45;7.05;;;2.80;;
22015;SDS011;64992;51.698;-0.292;2022-11-11T10:40:51;10.60;;;2.47;;
22015;SDS011;64992;51.698;-0.292;2022-11-11T10:43:22;16.77;;;3.65;;
22015;SDS011;64992;51.698;-0.292;2022-11-11T10:48:19;14.25;;;3.60;;
22015;SDS011;64992;51.698;-0.292;2022-11-11T10:50:46;9.13;;;3.08;;
22015;SDS011;64992;51.698;-0.292;2022-11-11T10:58:33;11.25;;;3.83;;
22015;SDS011;64992;51.698;-0.292;2022-11-11T11:01:00;11.82;;;3.17;;
22015;SDS011;64992;51.698;-0.292;2022-11-11T11:03:31;12.10;;;3.05;;
22015;SDS011;64992;51.698;-0.292;2022-11-11T11:08:25;11.05;;;3.38;;
22015;SDS011;64992;51.698;-0.292;2022-11-11T11:10:54;10.05;;;3.05;;
22015;SDS011;64992;51.698;-0.292;2022-11-11T11:13:30;12.07;;;3.72;;
22015;SDS011;64992;51.698;-0.292;2022-11-11T11:16:02;13.82;;;2.65;;
22015;SDS011;64992;51.698;-0.292;2022-11-11T11:18:29;9.77;;;2.88;;
22015;SDS011;64992;51.698;-0.292;2022-11-11T11:20:57;16.48;;;3.65;;
22015;SDS011;64992;51.698;-0.292;2022-11-11T11:23:34;19.40;;;3.40;;
22015;SDS011;64992;51.698;-0.292;2022-11-11T11:26:00;8.27;;;3.25;;
22015;SDS011;64992;51.698;-0.292;2022-11-11T11:28:30;9.70;;;3.33;;
22015;SDS011;64992;51.698;-0.292;2022-11-11T11:31:03;11.32;;;3.45;;
22015;SDS011;64992;51.698;-0.292;2022-11-11T11:36:15;7.75;;;3.28;;
22015;SDS011;64992;51.698;-0.292;2022-11-11T11:38:46;12.30;;;3.20;;
22015;SDS011;64992;51.698;-0.292;2022-11-11T11:41:14;20.02;;;3.55;;
22015;SDS011;64992;51.698;-0.292;2022-11-11T11:43:40;16.23;;;3.10;;
22015;SDS011;64992;51.698;-0.292;2022-11-11T11:46:41;10.63;;;3.30;;
22015;SDS011;64992;51.698;-0.292;2022-11-11T11:49:03;15.32;;;3.15;;
22015;SDS011;64992;51.698;-0.292;2022-11-11T11:51:43;15.52;;;3.13;;
22015;SDS011;64992;51.698;-0.292;2022-11-11T11:56:40;10.38;;;3.15;;
22015;SDS011;64992;51.698;-0.292;2022-11-11T12:01:44;7.88;;;3.22;;
22015;SDS011;64992;51.698;-0.292;2022-11-11T12:04:30;7.15;;;3.25;;
22015;SDS011;64992;51.698;-0.292;2022-11-11T12:09:38;15.60;;;3.72;;
22015;SDS011;64992;51.698;-0.292;2022-11-11T12:18:00;13.50;;;3.25;;
22015;SDS011;64992;51.698;-0.292;2022-11-11T12:37:15;9.93;;;3.38;;
22015;SDS011;64992;51.698;-0.292;2022-11-11T12:39:58;8.07;;;2.97;;
22015;SDS011;64992;51.698;-0.292;2022-11-11T12:45:08;26.42;;;2.97;;
22015;SDS011;64992;51.698;-0.292;2022-11-11T12:50:25;13.25;;;3.08;;
22015;SDS011;64992;51.698;-0.292;2022-11-11T12:55:18;13.13;;;3.38;;
22015;SDS011;64992;51.698;-0.292;2022-11-11T13:00:20;10.90;;;3.15;;
22015;SDS011;64992;51.698;-0.292;2022-11-11T13:05:15;6.97;;;3.10;;
22015;SDS011;64992;51.698;-0.292;2022-11-11T13:15:22;8.77;;;3.20;;
22015;SDS011;64992;51.698;-0.292;2022-11-11T13:17:48;7.07;;;3.00;;
22015;SDS011;64992;51.698;-0.292;2022-11-11T13:20:17;14.15;;;3.42;;
22015;SDS011;64992;51.698;-0.292;2022-11-11T13:22:47;12.65;;;3.47;;
22015;SDS011;64992;51.698;-0.292;2022-11-11T13:25:16;12.15;;;3.47;;
22015;SDS011;64992;51.698;-0.292;2022-11-11T13:27:52;9.30;;;3.13;;
22015;SDS011;64992;51.698;-0.292;2022-11-11T13:33:04;12.65;;;3.35;;
22015;SDS011;64992;51.698;-0.292;2022-11-11T13:35:34;9.15;;;2.95;;
22015;SDS011;64992;51.698;-0.292;2022-11-11T13:38:01;7.43;;;3.00;;
22015;SDS011;64992;51.698;-0.292;2022-11-11T13:40:32;7.90;;;3.15;;
22015;SDS011;64992;51.698;-0.292;2022-11-11T13:42:59;9.50;;;2.97;;
22015;SDS011;64992;51.698;-0.292;2022-11-11T13:45:48;11.57;;;3.40;;
22015;SDS011;64992;51.698;-0.292;2022-11-11T13:48:27;10.60;;;3.33;;
22015;SDS011;64992;51.698;-0.292;2022-11-11T13:51:19;14.43;;;3.80;;
22015;SDS011;64992;51.698;-0.292;2022-11-11T13:53:46;6.00;;;2.67;;
22015;SDS011;64992;51.698;-0.292;2022-11-11T13:56:23;12.52;;;3.17;;
22015;SDS011;64992;51.698;-0.292;2022-11-11T13:58:50;11.70;;;3.22;;
22015;SDS011;64992;51.698;-0.292;2022-11-11T14:01:16;9.10;;;3.65;;
22015;SDS011;64992;51.698;-0.292;2022-11-11T14:13:53;7.88;;;3.10;;
22015;SDS011;64992;51.698;-0.292;2022-11-11T14:21:46;10.05;;;3.28;;
22015;SDS011;64992;51.698;-0.292;2022-11-11T14:26:58;8.95;;;2.70;;
22015;SDS011;64992;51.698;-0.292;2022-11-11T14:29:26;7.45;;;3.00;;
22015;SDS011;64992;51.698;-0.292;2022-11-11T14:34:47;9.60;;;3.20;;
22015;SDS011;64992;51.698;-0.292;2022-11-11T14:37:23;6.18;;;2.92;;
22015;SDS011;64992;51.698;-0.292;2022-11-11T14:39:52;5.93;;;3.28;;
22015;SDS011;64992;51.698;-0.292;2022-11-11T14:45:01;12.23;;;3.08;;
22015;SDS011;64992;51.698;-0.292;2022-11-11T14:47:34;11.32;;;3.30;;
22015;SDS011;64992;51.698;-0.292;2022-11-11T14:50:00;12.10;;;4.07;;
22015;SDS011;64992;51.698;-0.292;2022-11-11T14:52:34;5.75;;;3.08;;
22015;SDS011;64992;51.698;-0.292;2022-11-11T14:57:48;7.55;;;3.08;;
22015;SDS011;64992;51.698;-0.292;2022-11-11T15:00:14;8.60;;;3.35;;
22015;SDS011;64992;51.698;-0.292;2022-11-11T15:02:44;7.55;;;3.10;;
22015;SDS011;64992;51.698;-0.292;2022-11-11T15:05:13;11.48;;;2.90;;
22015;SDS011;64992;51.698;-0.292;2022-11-11T15:08:02;7.35;;;2.80;;
22015;SDS011;64992;51.698;-0.292;2022-11-11T15:10:42;9.48;;;2.83;;
22015;SDS011;64992;51.698;-0.292;2022-11-11T15:13:13;10.13;;;2.80;;
22015;SDS011;64992;51.698;-0.292;2022-11-11T15:21:01;9.55;;;3.60;;
22015;SDS011;64992;51.698;-0.292;2022-11-11T15:23:38;7.53;;;3.47;;
22015;SDS011;64992;51.698;-0.292;2022-11-11T15:26:09;9.95;;;3.30;;
22015;SDS011;64992;51.698;-0.292;2022-11-11T15:28:43;19.73;;;5.22;;
22015;SDS011;64992;51.698;-0.292;2022-11-11T15:33:54;8.02;;;3.28;;
22015;SDS011;64992;51.698;-0.292;2022-11-11T15:36:33;12.40;;;3.65;;
22015;SDS011;64992;51.698;-0.292;2022-11-11T15:39:03;8.77;;;3.75;;
22015;SDS011;64992;51.698;-0.292;2022-11-11T15:41:35;12.25;;;3.35;;
22015;SDS011;64992;51.698;-0.292;2022-11-11T15:44:01;10.05;;;3.35;;
22015;SDS011;64992;51.698;-0.292;2022-11-11T15:46:28;13.48;;;4.43;;
22015;SDS011;64992;51.698;-0.292;2022-11-11T15:48:54;7.03;;;3.00;;
22015;SDS011;64992;51.698;-0.292;2022-11-11T15:53:47;12.20;;;3.90;;
22015;SDS011;64992;51.698;-0.292;2022-11-11T15:56:29;9.35;;;3.83;;
22015;SDS011;64992;51.698;-0.292;2022-11-11T15:58:55;7.95;;;3.28;;
22015;SDS011;64992;51.698;-0.292;2022-11-11T16:01:24;27.33;;;4.45;;
22015;SDS011;64992;51.698;-0.292;2022-11-11T16:03:50;8.20;;;3.50;;
22015;SDS011;64992;51.698;-0.292;2022-11-11T16:06:16;11.85;;;3.40;;
22015;SDS011;64992;51.698;-0.292;2022-11-11T16:08:43;12.55;;;3.47;;
22015;SDS011;64992;51.698;-0.292;2022-11-11T16:11:10;9.43;;;3.40;;
22015;SDS011;64992;51.698;-0.292;2022-11-11T16:13:41;20.52;;;4.70;;
22015;SDS011;64992;51.698;-0.292;2022-11-11T16:16:13;6.43;;;3.20;;
22015;SDS011;64992;51.698;-0.292;2022-11-11T16:18:42;10.00;;;4.13;;
22015;SDS011;64992;51.698;-0.292;2022-11-11T16:21:15;9.52;;;3.90;;
22015;SDS011;64992;51.698;-0.292;2022-11-11T16:23:43;22.52;;;4.78;;
22015;SDS011;64992;51.698;-0.292;2022-11-11T16:26:09;9.02;;;3.05;;
22015;SDS011;64992;51.698;-0.292;2022-11-11T16:28:47;11.77;;;3.28;;
22015;SDS011;64992;51.698;-0.292;2022-11-11T16:31:20;11.82;;;3.47;;
22015;SDS011;64992;51.698;-0.292;2022-11-11T16:33:46;9.32;;;3.35;;
22015;SDS011;64992;51.698;-0.292;2022-11-11T16:36:12;7.20;;;2.90;;
22015;SDS011;64992;51.698;-0.292;2022-11-11T16:38:38;8.68;;;3.33;;
22015;SDS011;64992;51.698;-0.292;2022-11-11T16:41:19;6.80;;;3.42;;
22015;SDS011;64992;51.698;-0.292;2022-11-11T16:43:48;7.57;;;3.42;;